• Join FlightAware (Why Join?)
  • Login
  • US Flag 
10:48PM EDT


 

Airport Tracker/Info


-or-


 

Live Flight TrackerFlight Track Log ✈ TAM3666 ✈ 05-Sep-2013 ✈ SBGR / GRU - SBTE / THE

Flight Track Log - Related Links

Times and Time Zones

All times are in EDT time to prevent confusion due to time zone crossing. See the TAM3666 flight status page for this flight to view local times or setup timezone preferences in your user account.

Time Position Orientation Groundspeed Altitude Reporting Facility
EDT Latitude Longitude Course Direction KTS MPH feet Rate Location/Type
09:40PM -23.4330 -46.4780 90° East 88 101  Level FlightAware
09:40PM -23.4300 -46.4660 75° East 160 184 4,620 Level FlightAware
09:40PM -23.4260 -46.4530 71° East 164 189 2,700 5,820 Climbing FlightAware
09:41PM -23.4210 -46.4370 71° East 172 198 3,400 1,560 Climbing FlightAware
09:41PM -23.4160 -46.4190 73° East 191 220 3,800 1,380 Climbing FlightAware
09:42PM -23.4070 -46.3870 73° East 237 273 4,600 1,920 Climbing FlightAware
09:42PM -23.4000 -46.3640 72° East 245 282 5,400 2,400 Climbing FlightAware
09:42PM -23.3870 -46.3350 64° Northeast 268 308 6,400 2,400 Climbing FlightAware
09:42PM -23.3820 -46.3310 36° Northeast 264 304 6,600 2,400 Climbing FlightAware
09:42PM -23.3770 -46.3270 36° Northeast 272 313 6,800 3,000 Climbing FlightAware
09:43PM -23.3540 -46.3160 24° Northeast 268 308 7,900 2,880 Climbing FlightAware
09:43PM -23.3300 -46.3030 26° Northeast 288 331 8,700 2,520 Climbing FlightAware
09:43PM -23.3120 -46.2930 27° Northeast 292 336 9,400 2,220 Climbing FlightAware
09:44PM -23.2620 -46.2660 26° Northeast 311 358 10,800 1,740 Climbing FlightAware
09:45PM -23.2130 -46.2390 27° Northeast 346 398 11,600 1,740 Climbing FlightAware
09:45PM -23.1670 -46.2140 27° Northeast 365 420 12,700 2,160 Climbing FlightAware
09:46PM -23.1150 -46.1850 27° Northeast 373 429 14,000 2,160 Climbing FlightAware
09:46PM -23.0890 -46.1760 18° North 377 434 14,500 1,800 Climbing FlightAware
09:46PM -23.0560 -46.1780 357° North 378 435 15,200 1,680 Climbing FlightAware
09:47PM -23.0060 -46.1880 350° North 387 445 16,100 1,800 Climbing FlightAware
09:47PM -22.9470 -46.1980 351° North 394 453 17,200 2,280 Climbing FlightAware
09:48PM -22.8750 -46.2100 351° North 391 450 18,900 2,160 Climbing FlightAware
09:49PM -22.8090 -46.2220 350° North 399 459 20,000 1,920 Climbing FlightAware
09:49PM -22.7270 -46.2360 351° North 405 466 21,400 1,800 Climbing FlightAware
09:50PM -22.6720 -46.2450 351° North 408 470 22,200 1,560 Climbing FlightAware
09:50PM -22.6120 -46.2560 350° North 410 472 23,100 1,560 Climbing FlightAware
09:51PM -22.5340 -46.2690 351° North 420 483 24,100 1,620 Climbing FlightAware
09:52PM -22.4690 -46.2800 351° North 420 483 25,100 1,440 Climbing FlightAware
09:52PM -22.4080 -46.2910 351° North 425 489 25,700 1,200 Climbing FlightAware
09:53PM -22.3310 -46.3040 351° North 429 494 26,600 1,200 Climbing FlightAware
09:53PM -22.2630 -46.3150 351° North 439 505 27,200 1,080 Climbing FlightAware
09:54PM -22.2020 -46.3250 351° North 441 507 27,800 1,140 Climbing FlightAware
09:55PM -22.1150 -46.3400 351° North 446 513 28,600 1,140 Climbing FlightAware
09:55PM -22.0490 -46.3520 350° North 450 518 29,200 1,080 Climbing FlightAware
09:56PM -21.9830 -46.3650 350° North 452 520 29,800 1,080 Climbing FlightAware
09:56PM -21.9160 -46.3780 350° North 454 522 30,400 1,620 Climbing FlightAware
09:57PM -21.8090 -46.3950 352° North 444 511 31,800 1,500 Climbing FlightAware
09:58PM -21.7210 -46.4090 352° North 445 512 32,500 1,440 Climbing FlightAware
09:58PM -21.6520 -46.4210 351° North 427 491 33,700 1,800 Climbing FlightAware
09:59PM -21.5930 -46.4300 352° North 419 482 34,500 1,080 Climbing FlightAware
09:59PM -21.5280 -46.4410 351° North 422 486 34,900 780 Climbing FlightAware
10:00PM -21.4490 -46.4540 351° North 421 484 35,500 900 Climbing FlightAware
10:01PM -21.3900 -46.4630 352° North 418 481 36,000 720 Climbing FlightAware
10:01PM -21.3230 -46.4740 351° North 423 487 36,300 600 Climbing FlightAware
10:02PM -21.2540 -46.4860 351° North 423 487 36,700 600 Climbing FlightAware
10:02PM -21.1860 -46.4970 351° North 421 484 37,000 240 Climbing FlightAware
10:03PM -21.1210 -46.5070 352° North 418 481 37,000  Level FlightAware
10:03PM -21.0540 -46.5180 351° North 421 484 37,000  Level FlightAware
10:04PM -20.9890 -46.5290 351° North 425 489 37,000  Level FlightAware
10:05PM -20.9150 -46.5410 351° North 427 491 37,000  Level FlightAware
10:05PM -20.8480 -46.5520 351° North 429 494 37,000  Level FlightAware
10:06PM -20.7780 -46.5630 352° North 429 494 37,000  Level FlightAware
10:06PM -20.7030 -46.5750 351° North 429 494 37,000  Level FlightAware
10:07PM -20.6430 -46.5850 351° North 428 493 37,000  Level FlightAware
10:08PM -20.5730 -46.5960 352° North 429 494 37,000  Level FlightAware
10:08PM -20.4980 -46.6090 351° North 428 493 37,000  Level FlightAware
10:09PM -20.4340 -46.6200 351° North 428 493 37,000  Level FlightAware
10:09PM -20.3550 -46.6230 358° North 438 504 37,000  Level FlightAware
10:10PM -20.2730 -46.6220 North 438 504 37,000  Level FlightAware
10:11PM -20.1910 -46.6210 North 437 503 37,000  Level FlightAware
10:11PM -20.1150 -46.6200 North 436 502 37,000  Level FlightAware
10:12PM -20.0290 -46.6190 North 436 502 37,000  Level FlightAware
10:13PM -19.9460 -46.6170 North 438 504 37,000  Level FlightAware
10:13PM -19.8640 -46.6160 North 439 505 37,000  Level FlightAware
10:14PM -19.7820 -46.6150 North 439 505 37,000  Level FlightAware
10:15PM -19.7020 -46.6140 North 439 505 37,000  Level FlightAware
10:15PM -19.6190 -46.6130 North 437 503 37,000  Level FlightAware
10:16PM -19.5390 -46.6120 North 434 499 37,000  Level FlightAware
10:17PM -19.4630 -46.6110 North 432 497 37,000  Level FlightAware
10:17PM -19.3770 -46.6100 North 432 497 37,000  Level FlightAware
10:18PM -19.3000 -46.6090 North 433 498 37,000  Level FlightAware
10:19PM -19.2230 -46.6080 North 433 498 37,000  Level FlightAware
10:20PM -19.1300 -46.6100 359° North 434 499 37,000  Level FlightAware
10:20PM -19.0830 -46.6060 North 435 501 37,000  Level FlightAware
10:20PM -19.0680 -46.6060 360° North 436 502 37,000  Level FlightAware
10:21PM -18.9940 -46.6050 North 437 503 37,000  Level FlightAware
10:21PM -18.9200 -46.6040 North 440 506 37,000  Level FlightAware
10:22PM -18.8550 -46.6030 North 441 507 37,000  Level FlightAware
10:22PM -18.7810 -46.6020 North 442 509 37,000  Level FlightAware
10:23PM -18.7070 -46.6010 North 442 509 37,000  Level FlightAware
10:23PM -18.6360 -46.6010 360° North 443 510 37,000  Level FlightAware
10:24PM -18.5580 -46.6000 North 443 510 37,000  Level FlightAware
10:25PM -18.4900 -46.5990 North 443 510 37,000  Level FlightAware
10:25PM -18.4180 -46.5980 North 443 510 37,000  Level FlightAware
10:26PM -18.3320 -46.5970 North 443 510 37,000  Level FlightAware
10:26PM -18.2720 -46.5960 North 443 510 37,000  Level FlightAware
10:27PM -18.2000 -46.5950 North 444 511 37,000  Level FlightAware
10:28PM -18.1340 -46.5940 North 443 510 37,000  Level FlightAware
10:28PM -18.0430 -46.5930 North 444 511 37,000  Level FlightAware
10:29PM -17.9650 -46.5920 North 444 511 37,000  Level FlightAware
10:29PM -17.9010 -46.5910 North 444 511 37,000  Level FlightAware
10:30PM -17.8300 -46.5910 360° North 444 511 37,000  Level FlightAware
10:31PM -17.7550 -46.5900 North 444 511 37,000  Level FlightAware
10:31PM -17.6780 -46.5890 North 444 511 37,000  Level FlightAware
10:32PM -17.6010 -46.5880 North 444 511 37,000  Level FlightAware
10:32PM -17.5400 -46.5870 North 444 511 37,000  Level FlightAware
10:33PM -17.4690 -46.5860 North 445 512 37,000  Level FlightAware
10:34PM -17.3890 -46.5850 North 447 514 37,000  Level FlightAware
10:34PM -17.3240 -46.5840 North 446 513 37,000  Level FlightAware
10:35PM -17.2460 -46.5830 North 446 513 37,000  Level FlightAware
10:35PM -17.1690 -46.5820 North 445 512 37,000  Level FlightAware
10:36PM -17.1040 -46.5810 North 445 512 37,000  Level FlightAware
10:37PM -17.0250 -46.5800 North 445 512 37,000  Level FlightAware
10:37PM -17.0690 -46.5810 181° South 445 512 37,000  Level FlightAware
10:37PM -17.1370 -46.5840 182° South 445 512 37,000  Level FlightAware
10:38PM -17.2000 -46.5860 182° South 445 512 37,000  Level FlightAware
10:38PM -16.7990 -46.5780 North 444 511 37,000  Level FlightAware
10:39PM -16.7260 -46.5770 North 444 511 37,000  Level FlightAware
10:40PM -16.6580 -46.5760 North 443 510 37,000  Level FlightAware
10:40PM -16.5640 -46.5750 North 444 511 37,000  Level FlightAware
10:41PM -16.5010 -46.5730 North 444 511 37,000  Level FlightAware
10:42PM -16.4380 -46.5720 North 444 511 37,000  Level FlightAware
10:42PM -16.3730 -46.5710 North 444 511 37,000  Level FlightAware
10:43PM -16.2380 -46.5710 360° North 446 513 37,000  Level FlightAware
10:44PM -16.2400 -46.5710 180° South 446 513 37,000  Level FlightAware
10:44PM -16.2370 -46.5710 360° North 446 513 37,000  Level FlightAware
10:45PM -16.1740 -46.5690 North 446 513 37,000  Level FlightAware
10:45PM -16.1100 -46.5680 North 446 513 37,000  Level FlightAware
10:46PM -15.8600 -46.5660 360° North 442 509 37,000  Level FlightAware
10:47PM -15.7870 -46.5650 North 442 509 37,000  Level FlightAware
10:47PM -15.6830 -46.5640 North 443 510 37,000  Level FlightAware
10:48PM -15.6140 -46.5630 North 443 510 37,000  Level FlightAware
10:49PM -15.5500 -46.5630 360° North 443 510 37,000  Level FlightAware
10:49PM -15.4590 -46.5610 North 443 510 37,000  Level FlightAware
10:50PM -15.3950 -46.5600 North 443 510 37,000  Level FlightAware
10:50PM -15.3320 -46.5590 North 443 510 37,000  Level FlightAware
10:51PM -15.2680 -46.5580 North 443 510 37,000  Level FlightAware
10:52PM -15.2050 -46.5570 North 443 510 37,000  Level FlightAware
10:52PM -15.1420 -46.5560 North 443 510 37,000  Level FlightAware
10:53PM -15.0800 -46.5550 North 443 510 37,000  Level FlightAware
10:53PM -15.0170 -46.5530 North 443 510 37,000  Level FlightAware
10:54PM -14.9540 -46.5520 North 443 510 37,000  Level FlightAware
10:55PM -14.8910 -46.5510 North 443 510 37,000  Level FlightAware
10:55PM -14.8290 -46.5500 North 443 510 37,000  Level FlightAware
10:56PM -14.7660 -46.5490 North 443 510 37,000  Level FlightAware
10:56PM -14.7030 -46.5480 North 443 510 37,000  Level FlightAware
10:57PM -14.6390 -46.5470 North 443 510 37,000  Level FlightAware
10:58PM -14.5760 -46.5450 North 443 510 37,000  Level FlightAware
10:58PM -14.5130 -46.5440 North 443 510 37,000  Level FlightAware
10:59PM -14.4510 -46.5430 North 443 510 37,000  Level FlightAware
11:01PM -14.2970 -46.4799 22° Northeast  Level Estimated
11:02PM -14.2054 -46.4424 22° Northeast  Level Estimated
11:03PM -14.1139 -46.4049 22° Northeast  Level Estimated
11:04PM -14.0224 -46.3675 22° Northeast  Level Estimated
11:05PM -13.9308 -46.3301 22° Northeast  Level Estimated
11:06PM -13.8393 -46.2928 22° Northeast  Level Estimated
11:07PM -13.7477 -46.2554 22° Northeast  Level Estimated
11:08PM -13.6562 -46.2181 22° Northeast  Level Estimated
11:09PM -13.5646 -46.1809 22° Northeast  Level Estimated
11:10PM -13.4731 -46.1436 22° Northeast  Level Estimated
11:11PM -13.3815 -46.1064 22° Northeast  Level Estimated
11:12PM -13.2899 -46.0692 22° Northeast  Level Estimated
11:13PM -13.1983 -46.0321 22° Northeast  Level Estimated
11:14PM -13.1067 -45.9949 22° Northeast  Level Estimated
11:15PM -13.0152 -45.9578 22° Northeast  Level Estimated
11:16PM -12.9235 -45.9208 22° Northeast  Level Estimated
11:17PM -12.8320 -45.8837 22° Northeast  Level Estimated
11:18PM -12.7403 -45.8467 22° Northeast  Level Estimated
11:19PM -12.6487 -45.8097 22° Northeast  Level Estimated
11:20PM -12.5571 -45.7727 21° North  Level Estimated
11:21PM -12.4655 -45.7358 21° North  Level Estimated
11:22PM -12.3739 -45.6989 21° North  Level Estimated
11:23PM -12.2822 -45.6620 21° North  Level Estimated
11:24PM -12.1906 -45.6251 21° North  Level Estimated
11:25PM -12.0990 -45.5883 21° North  Level Estimated
11:26PM -12.0073 -45.5515 21° North  Level Estimated
11:27PM -11.9157 -45.5147 21° North  Level Estimated
11:28PM -11.8240 -45.4780 21° North  Level Estimated
11:29PM -11.7323 -45.4412 21° North  Level Estimated
11:30PM -11.6407 -45.4045 21° North  Level Estimated
11:31PM -11.5490 -45.3678 21° North  Level Estimated
11:32PM -11.4573 -45.3312 21° North  Level Estimated
11:33PM -11.3656 -45.2945 21° North  Level Estimated
11:34PM -11.2739 -45.2579 21° North  Level Estimated
11:35PM -11.1823 -45.2213 21° North  Level Estimated
11:36PM -11.0906 -45.1847 21° North  Level Estimated
11:37PM -10.9989 -45.1482 21° North  Level Estimated
11:38PM -10.9072 -45.1117 21° North  Level Estimated
11:39PM -10.8154 -45.0752 21° North  Level Estimated
11:40PM -10.7237 -45.0387 21° North  Level Estimated
11:41PM -10.6320 -45.0022 21° North  Level Estimated
11:42PM -10.5403 -44.9658 21° North  Level Estimated
11:43PM -10.4486 -44.9294 21° North  Level Estimated
11:44PM -10.3568 -44.8930 21° North  Level Estimated
11:45PM -10.2651 -44.8566 21° North  Level Estimated
11:46PM -10.1734 -44.8203 21° North  Level Estimated
11:47PM -10.0816 -44.7839 21° North  Level Estimated
11:48PM -9.9899 -44.7476 21° North  Level Estimated
11:49PM -9.8982 -44.7113 21° North  Level Estimated
11:50PM -9.8064 -44.6751 21° North  Level Estimated
11:51PM -9.7146 -44.6388 21° North  Level Estimated
11:52PM -9.6229 -44.6026 21° North  Level Estimated
11:53PM -9.5311 -44.5664 21° North  Level Estimated
11:54PM -9.4394 -44.5302 21° North  Level Estimated
11:55PM -9.3476 -44.4940 21° North  Level Estimated
11:56PM -9.2558 -44.4579 21° North  Level Estimated
11:57PM -9.1640 -44.4217 21° North  Level Estimated
11:58PM -9.0723 -44.3856 21° North  Level Estimated
11:59PM -8.9805 -44.3495 21° North  Level Estimated
11:59PM -7.1860 -43.8160 21° North 452 520 37,000  Level FlightAware
12:00AM -8.8887 -44.3135 21° North  Level Estimated
12:00AM -7.1280 -43.7890 25° Northeast 453 521 37,000  Level FlightAware
12:00AM -7.0650 -43.7590 25° Northeast 454 522 37,000  Level FlightAware
12:01AM -7.0040 -43.7300 25° Northeast 454 522 37,000  Level FlightAware
12:02AM -6.9210 -43.6910 25° Northeast 454 522 37,000  Level FlightAware
12:02AM -6.8630 -43.6640 25° Northeast 452 520 37,000 -360 Level FlightAware
12:03AM -6.7910 -43.6300 25° Northeast 454 522 36,600 -1,980 Descending FlightAware
12:03AM -6.7170 -43.5960 25° Northeast 468 539 34,500 -2,880 Descending FlightAware
12:04AM -6.6570 -43.5680 25° Northeast 461 531 33,400 -2,160 Descending FlightAware
12:04AM -6.5840 -43.5340 25° Northeast 449 517 32,100 -2,040 Descending FlightAware
12:05AM -6.5170 -43.5020 25° Northeast 441 507 30,900 -2,040 Descending FlightAware
12:06AM -6.4600 -43.4750 25° Northeast 429 494 29,800 -2,100 Descending FlightAware
12:06AM -6.3910 -43.4440 24° Northeast 417 480 28,500 -2,100 Descending FlightAware
12:07AM -6.3350 -43.4170 26° Northeast 407 468 27,400 -1,980 Descending FlightAware
12:07AM -6.2750 -43.3890 25° Northeast 401 461 26,300 -1,920 Descending FlightAware
12:08AM -6.2100 -43.3590 25° Northeast 397 457 25,100 -1,980 Descending FlightAware
12:08AM -6.1570 -43.3340 25° Northeast 394 453 24,000 -1,980 Descending FlightAware
12:09AM -6.0980 -43.3070 24° Northeast 389 448 22,900 -1,920 Descending FlightAware
12:10AM -6.0390 -43.2800 24° Northeast 385 443 21,700 -1,920 Descending FlightAware
12:10AM -5.9810 -43.2520 26° Northeast 381 438 20,600 -1,860 Descending FlightAware
12:11AM -5.9290 -43.2280 25° Northeast 376 433 19,600 -1,920 Descending FlightAware
12:11AM -5.8790 -43.2050 25° Northeast 372 428 18,600 -1,860 Descending FlightAware
12:12AM -5.8230 -43.1790 25° Northeast 368 423 17,500 -2,880 Descending FlightAware
12:13AM -5.7680 -43.1480 29° Northeast 384 442 15,200 -3,840 Descending FlightAware
12:13AM -5.7240 -43.1120 39° Northeast 378 435 13,200 -3,720 Descending FlightAware
12:14AM -5.6750 -43.0720 39° Northeast 370 426 11,000 -2,760 Descending FlightAware
12:14AM -5.6330 -43.0380 39° Northeast 335 386 10,000 -1,560 Descending FlightAware
12:15AM -5.6050 -43.0150 39° Northeast 310 357 9,500 -1,500 Descending FlightAware
12:15AM -5.5830 -42.9970 39° Northeast 297 342 8,900 -1,680 Descending FlightAware
12:15AM -5.5620 -42.9810 37° Northeast 286 329 8,400 -1,500 Descending FlightAware
12:16AM -5.5420 -42.9640 40° Northeast 276 318 7,900 -2,100 Descending FlightAware
12:16AM -5.5220 -42.9480 39° Northeast 279 321 7,000 -2,340 Descending FlightAware
12:16AM -5.4980 -42.9280 40° Northeast 275 316 6,200 -2,220 Descending FlightAware
12:17AM -5.4780 -42.9110 40° Northeast 272 313 5,400 -2,100 Descending FlightAware
12:17AM -5.4580 -42.8960 37° Northeast 275 316 4,800 -1,620 Descending FlightAware
12:17AM -5.4340 -42.8760 40° Northeast 270 311 4,200 -960 Descending FlightAware
12:18AM -5.4160 -42.8610 40° Northeast 270 311 4,100 -360 Descending FlightAware
12:18AM -5.3950 -42.8440 39° Northeast 273 314 4,000  Descending FlightAware
12:18AM -5.3800 -42.8320 39° Northeast 258 297 4,100 120 Climbing FlightAware
12:19AM -5.3630 -42.8180 39° Northeast 236 272 4,100  Level FlightAware
12:19AM -5.3470 -42.8040 41° Northeast 218 251 4,100 -180 Level FlightAware
12:19AM -5.3330 -42.7960 30° Northeast 214 246 4,000 -300 Descending FlightAware
12:19AM -5.3290 -42.7960 360° North 216 249 4,000 -600 Level FlightAware
12:19AM -5.3250 -42.7950 14° North 219 252 3,900 -1,080 Descending FlightAware
12:20AM -5.3000 -42.7980 353° North 219 252 3,500 -1,080 Descending FlightAware
12:20AM -5.2760 -42.8010 353° North 217 250 3,100 -1,140 Descending FlightAware
12:21AM -5.2560 -42.8030 354° North 217 250 2,700 -960 Descending FlightAware
12:21AM -5.2450 -42.8050 350° North 215 247 2,600 -360 Descending FlightAware
12:21AM -5.2210 -42.8070 355° North 204 235 2,500  Descending FlightAware
12:22AM -5.2020 -42.8090 354° North 206 237 2,600  Climbing FlightAware
12:22AM -5.1830 -42.8110 354° North 200 230 2,500 -720 Descending FlightAware
12:22AM -5.1620 -42.8130 355° North 188 216 2,100 -960 Descending FlightAware
12:23AM -5.1450 -42.8150 353° North 178 205 1,800 -1,080 Descending FlightAware
12:23AM -5.1290 -42.8160 356° North 160 184 1,400 -1,020 Descending FlightAware
12:23AM -5.1140 -42.8180 352° North 145 167 1,100 -720 Descending FlightAware
12:24AM -5.1010 -42.8190 356° North 138 159 900 -780 Descending FlightAware
12:24AM -5.0880 -42.8210 351° North 140 161 600 -780 Descending FlightAware
12:24AM -5.0750 -42.8220 356° North 145 167 400 -600 Descending FlightAware
12:25AM -5.0630 -42.8230 355° North 140 161 -1,380 Descending FlightAware